This is the latest recevied weather packets stored in our database for station/object OE7BJT-13. If no packets are shown the sender has not sent any weather packets the latest 10 day(s).
| Time | Temp. | Humidity | Pressure | Rain* | Wind** | Luminosity | Snow |
|---|---|---|---|---|---|---|---|
| 1788201403 | 17.78° C | 10% | - | - | - | - | - |
| 1788200191 | 18.33° C | 10% | - | - | - | - | - |
| 1788199585 | 18.89° C | 10% | - | - | - | - | - |
| 1788197162 | 19.44° C | 10% | - | - | - | - | - |
| 1788195951 | 19.44° C | 10% | - | - | - | - | - |
| 1788194134 | 20.56° C | 80% | 679 hPa | - | - | - | - |
| 1788192922 | 21.11° C | 74% | 680 hPa | - | - | - | - |
| 1788192317 | 22.22° C | 68% | 681 hPa | - | - | - | - |
| 1788189895 | 22.78° C | 60% | 681 hPa | - | - | - | - |
| 1788188683 | 23.33° C | 66% | 682 hPa | - | - | - | - |
| 1788188078 | 23.33° C | 67% | 682 hPa | - | - | - | - |
| 1788187472 | 23.89° C | 64% | 682 hPa | - | - | - | - |
| 1788186867 | 24.44° C | 64% | 683 hPa | - | - | - | - |
| 1788185655 | 25.56° C | 61% | 684 hPa | - | - | - | - |
| 1788185050 | 24.44° C | 67% | 683 hPa | - | - | - | - |
| 1788184444 | 25.56° C | 64% | 684 hPa | - | - | - | - |
| 1788182627 | 26.11° C | 61% | 685 hPa | - | - | - | - |
| 1788182022 | 27.22° C | 56% | 685 hPa | - | - | - | - |
| 1788181416 | 27.78° C | 51% | 686 hPa | - | - | - | - |
| 1788180811 | 29.44° C | 47% | 688 hPa | - | - | - | - |
| 1788180205 | 29.44° C | 46% | 688 hPa | - | - | - | - |
| 1788179599 | 30° C | 44% | 688 hPa | - | - | - | - |
| 1788178994 | 30.56° C | 45% | 689 hPa | - | - | - | - |
| 1788177783 | 30.56° C | 46% | 689 hPa | - | - | - | - |
| 1788177177 | 30° C | 44% | 689 hPa | - | - | - | - |
* Rain since midnight (hover to see other rain measurements)
** Current wind speed in m/s (hover to see current wind gust speed)